Time;durP1;ratioP1;P1;durP2;ratioP2;P2;SDS_P1;SDS_P2;PMS_P1;PMS_P2;Temp;Humidity;BMP_temperature;BMP_pressure;BME280_temperature;BME280_humidity;BME280_pressure;Samples;Min_cycle;Max_cycle;Signal;HPM_P1;HPM_P2
2021/03/07 00:02:23;;;;;;;5.38;3.00;;;23.80;28.90;;;;;;4992784;28;20398;-57
2021/03/07 00:04:49;;;;;;;5.22;3.20;;;23.70;29.10;;;;;;4992673;28;20459;-57
2021/03/07 00:07:15;;;;;;;6.00;3.30;;;23.70;28.70;;;;;;4992517;28;20521;-57
2021/03/07 00:09:41;;;;;;;6.45;3.40;;;23.70;28.70;;;;;;4992315;28;20486;-57
2021/03/07 00:12:07;;;;;;;5.15;3.13;;;23.70;28.70;;;;;;4992351;28;20870;-57
2021/03/07 00:14:33;;;;;;;5.53;3.10;;;23.70;28.70;;;;;;4992346;28;20818;-57
2021/03/07 00:16:59;;;;;;;4.82;2.95;;;23.60;29.00;;;;;;4992321;28;20766;-57
2021/03/07 00:19:25;;;;;;;6.40;3.30;;;23.60;28.90;;;;;;4991935;28;20391;-57
2021/03/07 00:21:50;;;;;;;3.60;2.83;;;23.60;29.00;;;;;;4992318;28;20394;-57
2021/03/07 00:24:16;;;;;;;3.77;3.13;;;23.60;28.50;;;;;;4991229;28;20391;-57
2021/03/07 00:26:42;;;;;;;4.30;3.00;;;23.60;29.30;;;;;;4990913;28;20896;-57
2021/03/07 00:29:07;;;;;;;4.43;3.00;;;23.50;28.60;;;;;;4991131;28;20405;-57
2021/03/07 00:31:33;;;;;;;4.55;3.10;;;23.50;28.60;;;;;;4989622;28;20418;-57
2021/03/07 00:33:59;;;;;;;3.75;3.00;;;23.50;28.80;;;;;;4991506;28;20434;-57
2021/03/07 00:36:24;;;;;;;5.15;3.00;;;23.50;28.70;;;;;;4991458;28;20908;-57
2021/03/07 00:38:50;;;;;;;4.00;2.88;;;23.40;28.40;;;;;;4991427;28;20402;-57
2021/03/07 00:41:16;;;;;;;3.87;2.70;;;23.40;28.60;;;;;;4991292;28;20434;-57
2021/03/07 00:43:41;;;;;;;4.15;2.80;;;23.40;28.50;;;;;;4991513;28;20394;-57
2021/03/07 00:46:07;;;;;;;9.15;3.08;;;23.40;28.40;;;;;;4991631;28;20407;-57
2021/03/07 00:48:33;;;;;;;3.83;2.90;;;23.40;28.50;;;;;;4991971;28;20724;-57
2021/03/07 00:50:59;;;;;;;4.47;2.65;;;23.40;28.40;;;;;;4991625;28;20719;-57
2021/03/07 00:53:25;;;;;;;3.72;2.80;;;23.40;28.80;;;;;;4991131;28;20405;-57
2021/03/07 00:55:50;;;;;;;3.47;2.60;;;23.30;28.30;;;;;;4991527;28;20448;-57
2021/03/07 00:58:17;;;;;;;4.60;2.80;;;23.30;28.70;;;;;;4991474;28;20406;-57
2021/03/07 01:00:46;;;;;;;3.65;2.80;;;23.30;28.20;;;;;;4991232;28;20514;-57
2021/03/07 01:03:12;;;;;;;3.22;2.63;;;23.20;28.30;;;;;;4991312;28;20449;-57
2021/03/07 01:05:38;;;;;;;3.10;2.72;;;23.20;28.70;;;;;;4990845;28;20752;-57
2021/03/07 01:08:04;;;;;;;4.00;2.72;;;23.30;28.30;;;;;;5006265;28;20430;-57
2021/03/07 01:10:37;;;;;;;3.72;2.60;;;23.20;28.40;;;;;;4991108;28;20406;-57
2021/03/07 01:13:09;;;;;;;3.53;2.63;;;23.20;28.60;;;;;;4991072;28;20794;-57
2021/03/07 01:15:35;;;;;;;3.28;2.70;;;23.10;28.60;;;;;;4990550;28;20449;-57
2021/03/07 01:18:01;;;;;;;3.20;2.60;;;23.20;28.40;;;;;;4991041;28;20394;-57
2021/03/07 01:20:27;;;;;;;3.08;2.47;;;23.10;28.50;;;;;;4989707;28;20412;-57
2021/03/07 01:22:55;;;;;;;3.90;2.70;;;23.10;28.60;;;;;;4990897;28;20873;-58
2021/03/07 01:25:24;;;;;;;3.13;2.53;;;23.10;28.40;;;;;;4990304;28;20425;-57
2021/03/07 01:27:50;;;;;;;3.85;2.50;;;23.00;28.00;;;;;;4990419;28;20461;-58
2021/03/07 01:30:17;;;;;;;2.95;2.45;;;23.00;28.30;;;;;;4990428;28;20436;-57
2021/03/07 01:32:43;;;;;;;2.93;2.57;;;23.00;28.60;;;;;;4990558;28;20481;-57
2021/03/07 01:35:09;;;;;;;3.67;2.60;;;23.00;28.60;;;;;;4990657;28;20474;-57
2021/03/07 01:37:35;;;;;;;3.03;2.58;;;23.00;28.20;;;;;;4990291;28;20409;-57
2021/03/07 01:40:06;;;;;;;2.80;2.35;;;22.90;28.40;;;;;;4990663;28;20486;-57
2021/03/07 01:42:32;;;;;;;3.10;2.58;;;23.00;28.50;;;;;;4990636;28;20401;-57
2021/03/07 01:44:57;;;;;;;3.60;2.50;;;22.90;28.50;;;;;;4990371;28;20386;-57
2021/03/07 01:47:31;;;;;;;2.65;2.25;;;22.90;28.50;;;;;;4990018;28;20421;-57
2021/03/07 01:49:57;;;;;;;3.40;2.60;;;22.80;28.20;;;;;;4990423;28;20406;-57
2021/03/07 01:52:23;;;;;;;3.13;2.40;;;22.80;28.30;;;;;;4990651;28;20433;-57
2021/03/07 01:54:48;;;;;;;2.85;2.40;;;22.80;28.30;;;;;;4990508;28;20537;-57
2021/03/07 01:57:18;;;;;;;2.97;2.25;;;22.80;28.60;;;;;;4991839;28;20860;-57
2021/03/07 01:59:45;;;;;;;2.83;2.35;;;22.80;28.40;;;;;;4994063;28;20452;-57
2021/03/07 02:02:11;;;;;;;3.00;2.42;;;22.80;28.60;;;;;;4977045;28;20441;-57
2021/03/07 02:04:37;;;;;;;2.93;2.40;;;22.70;28.50;;;;;;4994278;28;20741;-57
2021/03/07 02:07:02;;;;;;;3.75;2.25;;;22.70;28.20;;;;;;4994251;28;20774;-58
2021/03/07 02:09:28;;;;;;;2.80;2.43;;;22.70;28.40;;;;;;4993780;28;20500;-57
2021/03/07 02:11:55;;;;;;;2.75;2.42;;;22.70;28.20;;;;;;4993787;28;20390;-57
2021/03/07 02:14:21;;;;;;;2.85;2.50;;;22.70;28.30;;;;;;4994113;28;20489;-57
2021/03/07 02:16:47;;;;;;;3.35;2.17;;;22.70;28.60;;;;;;4994026;28;20493;-57
2021/03/07 02:19:17;;;;;;;2.90;2.10;;;22.60;28.50;;;;;;4993728;28;20449;-57
2021/03/07 02:21:56;;;;;;;3.15;2.30;;;22.60;28.40;;;;;;4993350;28;20402;-57
2021/03/07 02:24:21;;;;;;;2.75;2.25;;;22.60;28.60;;;;;;4993652;28;20877;-57
2021/03/07 02:26:50;;;;;;;2.67;2.27;;;22.60;28.50;;;;;;4993190;28;20453;-57
2021/03/07 02:29:18;;;;;;;2.92;2.58;;;22.60;28.40;;;;;;4992131;28;20957;-57
2021/03/07 02:31:53;;;;;;;2.72;2.20;;;22.60;28.70;;;;;;4992929;28;20762;-57
2021/03/07 02:34:30;;;;;;;2.80;2.40;;;22.50;28.60;;;;;;4993352;28;20399;-57
2021/03/07 02:36:59;;;;;;;2.58;2.13;;;22.50;28.70;;;;;;4993330;28;20390;-57
2021/03/07 02:39:28;;;;;;;2.20;1.90;;;22.50;28.60;;;;;;4992800;28;20434;-57
2021/03/07 02:41:58;;;;;;;2.80;2.00;;;22.50;28.60;;;;;;4993111;28;20478;-57
2021/03/07 02:44:25;;;;;;;2.50;2.00;;;22.50;28.70;;;;;;4993241;28;20395;-57
2021/03/07 02:46:51;;;;;;;2.35;1.95;;;22.40;28.80;;;;;;4992993;28;20406;-57
2021/03/07 02:49:18;;;;;;;2.28;2.00;;;22.40;28.70;;;;;;4993390;28;20390;-57
2021/03/07 02:51:45;;;;;;;2.65;1.90;;;22.40;28.80;;;;;;4992611;28;20742;-57
2021/03/07 02:54:12;;;;;;;2.33;1.95;;;22.40;28.60;;;;;;4992927;28;20410;-57
2021/03/07 02:56:39;;;;;;;2.20;1.90;;;22.40;28.70;;;;;;4993008;28;20428;-57
2021/03/07 02:59:11;;;;;;;2.20;1.90;;;22.40;29.00;;;;;;4993445;28;20438;-57
2021/03/07 03:01:38;;;;;;;2.20;1.90;;;22.30;29.00;;;;;;4994185;28;20430;-58
2021/03/07 03:04:05;;;;;;;2.28;1.92;;;22.30;29.00;;;;;;4994759;28;20413;-57
2021/03/07 03:06:33;;;;;;;2.40;2.17;;;22.30;28.90;;;;;;4994557;28;20426;-57
2021/03/07 03:09:00;;;;;;;2.38;2.08;;;22.20;28.80;;;;;;4992992;28;20442;-57
2021/03/07 03:11:31;;;;;;;2.80;2.22;;;22.20;29.00;;;;;;4992406;28;20743;-57
2021/03/07 03:13:57;;;;;;;2.42;2.10;;;22.20;29.00;;;;;;4994256;28;20387;-57
2021/03/07 03:16:28;;;;;;;2.45;2.00;;;22.20;29.60;;;;;;4994571;28;20399;-57
2021/03/07 03:18:56;;;;;;;2.50;2.25;;;22.20;29.20;;;;;;4994323;28;20480;-57
2021/03/07 03:21:22;;;;;;;2.25;1.90;;;22.10;29.10;;;;;;4994320;28;20399;-57
2021/03/07 03:23:48;;;;;;;2.25;2.05;;;22.10;29.30;;;;;;4993881;28;20470;-57
2021/03/07 03:26:14;;;;;;;3.03;2.08;;;22.10;29.40;;;;;;4994078;28;20429;-57
2021/03/07 03:28:40;;;;;;;3.00;2.00;;;22.10;29.30;;;;;;4994398;28;20822;-56
2021/03/07 03:31:06;;;;;;;2.30;1.98;;;22.10;29.20;;;;;;4993844;28;20928;-57
2021/03/07 03:33:32;;;;;;;2.75;1.98;;;22.10;29.20;;;;;;4993781;28;20452;-58
2021/03/07 03:35:59;;;;;;;3.17;1.98;;;22.10;29.40;;;;;;4994019;28;20444;-57
2021/03/07 03:38:31;;;;;;;2.35;1.90;;;22.00;29.20;;;;;;4994071;28;20399;-57
2021/03/07 03:40:58;;;;;;;2.20;1.85;;;22.00;29.20;;;;;;5008889;28;20933;-57
2021/03/07 03:43:26;;;;;;;2.03;1.70;;;22.00;29.20;;;;;;4993609;28;20404;-57
2021/03/07 03:46:00;;;;;;;2.92;1.90;;;22.00;29.20;;;;;;4993389;28;20481;-57
2021/03/07 03:48:30;;;;;;;2.38;2.00;;;22.00;29.20;;;;;;4993817;28;20402;-57
2021/03/07 03:50:58;;;;;;;2.17;1.90;;;21.90;29.10;;;;;;4993809;28;20395;-57
2021/03/07 03:53:25;;;;;;;2.30;1.90;;;21.90;29.10;;;;;;4993802;28;20417;-57
2021/03/07 03:55:52;;;;;;;2.30;2.00;;;21.90;29.20;;;;;;4993381;28;20399;-57
2021/03/07 03:58:22;;;;;;;2.55;1.85;;;21.90;29.20;;;;;;4993080;28;20410;-57
2021/03/07 04:00:53;;;;;;;2.30;1.90;;;21.90;29.20;;;;;;4993434;28;20398;-57
2021/03/07 04:03:20;;;;;;;2.05;1.75;;;21.80;29.10;;;;;;4993564;28;20395;-57
2021/03/07 04:05:48;;;;;;;2.17;1.97;;;21.80;29.10;;;;;;4993026;28;21003;-57
2021/03/07 04:08:21;;;;;;;2.20;1.90;;;21.80;29.10;;;;;;4992148;28;20501;-57
2021/03/07 04:10:49;;;;;;;2.08;1.88;;;21.70;29.10;;;;;;4993461;28;20406;-57
2021/03/07 04:13:18;;;;;;;2.75;2.10;;;21.70;29.10;;;;;;4993303;28;20912;-57
2021/03/07 04:15:44;;;;;;;2.10;1.88;;;21.70;29.10;;;;;;4992872;28;20397;-57
2021/03/07 04:18:14;;;;;;;2.22;1.90;;;21.70;29.10;;;;;;4993176;28;20398;-57
2021/03/07 04:20:41;;;;;;;2.80;1.90;;;21.70;29.10;;;;;;4992910;28;20928;-57
2021/03/07 04:23:08;;;;;;;2.05;1.75;;;21.70;29.10;;;;;;4993191;28;20394;-56
2021/03/07 04:25:33;;;;;;;2.10;1.90;;;21.70;29.00;;;;;;4992725;28;20390;-57
2021/03/07 04:27:59;;;;;;;2.30;2.10;;;21.70;29.00;;;;;;4993072;28;20874;-57
2021/03/07 04:30:26;;;;;;;2.47;2.13;;;21.60;29.00;;;;;;4992829;28;20494;-57
2021/03/07 04:32:52;;;;;;;2.13;1.92;;;21.60;29.00;;;;;;4992999;28;20491;-57
2021/03/07 04:35:18;;;;;;;2.50;2.15;;;21.60;29.10;;;;;;4992957;28;20428;-57
2021/03/07 04:37:44;;;;;;;2.40;2.00;;;21.50;29.00;;;;;;4992426;28;20398;-57
2021/03/07 04:40:10;;;;;;;3.88;3.42;;;21.50;29.10;;;;;;4992914;28;20390;-56
2021/03/07 04:42:39;;;;;;;3.40;3.10;;;21.50;29.00;;;;;;4992820;28;20445;-57
2021/03/07 04:45:05;;;;;;;3.80;3.22;;;21.50;29.10;;;;;;4992739;28;20448;-57
2021/03/07 04:47:31;;;;;;;3.33;3.03;;;21.50;29.00;;;;;;4992130;28;20938;-57
2021/03/07 04:49:56;;;;;;;3.60;3.10;;;21.50;29.00;;;;;;4991411;28;20417;-57
2021/03/07 04:52:22;;;;;;;4.40;3.53;;;21.40;29.00;;;;;;4992690;28;20394;-57
2021/03/07 04:54:48;;;;;;;3.35;3.00;;;21.40;29.00;;;;;;4992363;28;20422;-57
2021/03/07 04:57:13;;;;;;;3.80;3.27;;;21.40;29.00;;;;;;4992472;28;20489;-57
2021/03/07 04:59:39;;;;;;;3.47;3.05;;;21.40;29.00;;;;;;4991490;28;20509;-57
2021/03/07 05:02:05;;;;;;;3.13;2.83;;;21.40;29.00;;;;;;4992068;28;20882;-57
2021/03/07 05:04:30;;;;;;;3.72;3.00;;;21.40;28.90;;;;;;4992528;28;20444;-57
2021/03/07 05:06:56;;;;;;;3.23;2.87;;;21.30;28.90;;;;;;4992317;28;21045;-57
2021/03/07 05:09:21;;;;;;;3.08;2.78;;;21.30;29.00;;;;;;4992431;28;20743;-57
2021/03/07 05:11:47;;;;;;;3.40;3.10;;;21.30;29.00;;;;;;4991885;28;20407;-57
2021/03/07 05:14:13;;;;;;;3.28;2.95;;;21.30;28.90;;;;;;4992239;28;20401;-57
2021/03/07 05:16:38;;;;;;;3.37;2.93;;;21.30;28.90;;;;;;4992399;28;20418;-57
2021/03/07 05:19:04;;;;;;;3.22;2.92;;;21.30;28.80;;;;;;4992316;28;20893;-57
2021/03/07 05:21:31;;;;;;;3.20;2.90;;;21.30;29.00;;;;;;4991768;28;20406;-58
2021/03/07 05:23:59;;;;;;;3.22;2.92;;;21.20;28.90;;;;;;4992147;28;20382;-57
2021/03/07 05:26:25;;;;;;;3.10;2.72;;;21.20;28.90;;;;;;4992244;28;20527;-57
2021/03/07 05:28:51;;;;;;;3.65;2.80;;;21.20;28.80;;;;;;4992107;28;20909;-57
2021/03/07 05:31:16;;;;;;;3.30;3.00;;;21.20;28.90;;;;;;4991379;28;20412;-57
2021/03/07 05:33:42;;;;;;;3.20;2.90;;;21.20;28.80;;;;;;4991123;28;20398;-57
2021/03/07 05:36:07;;;;;;;3.10;2.77;;;21.20;28.80;;;;;;4992011;28;20960;-57
2021/03/07 05:38:33;;;;;;;2.85;2.58;;;21.10;28.80;;;;;;4992063;28;20409;-57
2021/03/07 05:40:59;;;;;;;2.97;2.67;;;21.10;28.90;;;;;;4991991;28;20397;-57
2021/03/07 05:43:25;;;;;;;3.22;2.92;;;21.10;28.80;;;;;;4992313;28;20407;-57
2021/03/07 05:45:51;;;;;;;3.28;2.97;;;21.10;28.80;;;;;;4991493;28;20485;-57
2021/03/07 05:48:17;;;;;;;2.90;2.60;;;21.10;28.70;;;;;;4991935;28;20561;-57
2021/03/07 05:50:43;;;;;;;3.00;2.70;;;21.10;28.70;;;;;;4992392;28;20473;-57
2021/03/07 05:53:11;;;;;;;3.03;2.72;;;21.00;28.70;;;;;;4991938;28;20403;-57
2021/03/07 05:55:37;;;;;;;2.92;2.63;;;21.00;28.80;;;;;;4991542;28;20386;-57
2021/03/07 05:58:04;;;;;;;2.97;2.55;;;21.00;28.70;;;;;;4991865;28;20395;-57
2021/03/07 06:00:30;;;;;;;2.92;2.60;;;21.00;28.60;;;;;;4991947;28;20394;-57
2021/03/07 06:02:55;;;;;;;2.72;2.50;;;21.00;28.70;;;;;;4991774;28;20889;-57
2021/03/07 06:05:21;;;;;;;2.70;2.40;;;21.00;28.60;;;;;;4991906;28;20395;-57
2021/03/07 06:07:48;;;;;;;2.72;2.42;;;20.90;28.70;;;;;;4991336;28;20434;-58
2021/03/07 06:10:25;;;;;;;2.60;2.40;;;21.00;28.70;;;;;;4991840;28;20430;-57
2021/03/07 06:13:09;;;;;;;3.00;2.70;;;20.90;28.60;;;;;;4991790;28;20402;-57
2021/03/07 06:15:36;;;;;;;2.97;2.55;;;20.90;28.60;;;;;;4991443;28;20401;-57
2021/03/07 06:18:17;;;;;;;2.90;2.60;;;20.90;28.70;;;;;;4991734;28;20573;-57
2021/03/07 06:20:45;;;;;;;3.10;2.60;;;20.90;28.70;;;;;;4991965;28;20386;-57
2021/03/07 06:23:11;;;;;;;2.78;2.58;;;20.90;28.60;;;;;;4991694;28;20391;-57
2021/03/07 06:25:48;;;;;;;2.73;2.50;;;20.90;28.60;;;;;;4991307;28;20386;-57
2021/03/07 06:28:26;;;;;;;3.17;2.60;;;20.90;28.60;;;;;;4991406;28;20418;-57
2021/03/07 06:30:53;;;;;;;2.85;2.55;;;20.90;28.60;;;;;;4991322;28;20414;-57
2021/03/07 06:33:34;;;;;;;2.88;2.50;;;20.90;28.70;;;;;;4991637;28;20414;-56
2021/03/07 06:36:16;;;;;;;2.90;2.58;;;20.80;28.60;;;;;;4991659;28;20399;-57
2021/03/07 06:39:04;;;;;;;2.83;2.30;;;20.80;28.70;;;;;;4991855;28;20534;-57
2021/03/07 06:41:32;;;;;;;2.60;2.33;;;20.80;28.60;;;;;;4991630;28;20394;-57
2021/03/07 06:44:30;;;;;;;2.80;2.47;;;20.80;28.60;;;;;;4993408;28;20434;-57
2021/03/07 06:47:10;;;;;;;3.58;2.35;;;20.80;28.80;;;;;;4917943;28;20412;-57
2021/03/07 06:49:35;;;;;;;2.80;2.40;;;20.90;29.60;;;;;;5020234;28;20834;-58
2021/03/07 06:52:16;;;;;;;2.97;2.40;;;20.90;29.60;;;;;;5014649;28;20403;-61
2021/03/07 06:54:44;;;;;;;2.90;2.30;;;20.90;29.80;;;;;;5012026;28;20451;-57
2021/03/07 06:57:10;;;;;;;3.45;2.30;;;20.90;29.80;;;;;;5013769;28;20385;-58
2021/03/07 06:59:36;;;;;;;3.40;2.55;;;20.90;29.70;;;;;;5013188;28;20405;-57
2021/03/07 07:02:11;;;;;;;2.97;2.67;;;20.90;30.00;;;;;;5013979;28;20377;-57
2021/03/07 07:04:42;;;;;;;4.15;2.80;;;20.90;29.70;;;;;;5014405;28;20429;-58
2021/03/07 07:07:13;;;;;;;4.00;2.50;;;20.90;29.70;;;;;;5014067;28;20420;-57
2021/03/07 07:09:42;;;;;;;6.47;2.33;;;20.90;28.90;;;;;;5013611;28;20400;-57
2021/03/07 07:12:22;;;;;;;4.95;3.13;;;20.90;29.70;;;;;;5013985;28;20385;-57
2021/03/07 07:14:49;;;;;;;6.60;2.65;;;20.90;29.80;;;;;;5013912;28;20425;-57
2021/03/07 07:17:17;;;;;;;6.25;2.60;;;20.80;29.50;;;;;;5013852;28;20416;-57
2021/03/07 07:19:45;;;;;;;5.80;2.50;;;20.80;29.60;;;;;;5012059;28;20722;-57
2021/03/07 07:22:16;;;;;;;4.90;2.50;;;20.80;30.40;;;;;;5013827;28;20756;-57
2021/03/07 07:24:43;;;;;;;2.80;2.22;;;20.90;29.90;;;;;;5014161;28;20389;-57
2021/03/07 07:27:10;;;;;;;5.90;2.40;;;21.00;29.80;;;;;;5013449;28;20445;-57
2021/03/07 07:29:37;;;;;;;3.78;2.70;;;21.20;29.70;;;;;;5012215;28;20385;-58
2021/03/07 07:32:42;;;;;;;3.93;2.40;;;21.30;30.20;;;;;;5012600;28;20503;-57
2021/03/07 07:35:18;;;;;;;3.40;2.30;;;21.50;30.50;;;;;;5012296;28;20393;-57
2021/03/07 07:37:51;;;;;;;4.95;2.35;;;21.60;30.70;;;;;;5012045;28;20389;-57
2021/03/07 07:40:19;;;;;;;6.00;2.50;;;21.70;30.30;;;;;;5012276;28;20454;-58
2021/03/07 07:43:00;;;;;;;4.00;2.50;;;21.70;30.70;;;;;;5013205;28;20397;-57
2021/03/07 07:45:25;;;;;;;4.30;2.50;;;21.80;31.10;;;;;;5013488;28;20392;-57
2021/03/07 07:47:53;;;;;;;3.58;2.53;;;21.80;30.20;;;;;;5012771;28;20420;-58
2021/03/07 07:50:31;;;;;;;8.98;2.78;;;21.90;30.90;;;;;;5011713;28;20799;-57
2021/03/07 07:53:02;;;;;;;7.23;3.00;;;21.80;31.00;;;;;;5013188;28;20473;-57
2021/03/07 07:55:40;;;;;;;9.95;3.28;;;21.90;30.80;;;;;;5012628;28;20392;-58
2021/03/07 07:58:06;;;;;;;9.83;3.40;;;22.10;31.30;;;;;;5012896;28;20401;-57
2021/03/07 08:00:51;;;;;;;9.68;3.10;;;22.10;32.70;;;;;;5012955;28;20875;-58
2021/03/07 08:03:49;;;;;;;7.13;3.20;;;22.20;31.70;;;;;;5013003;28;20393;-58
2021/03/07 08:06:24;;;;;;;8.90;3.00;;;22.30;31.70;;;;;;5000664;28;20757;-58
2021/03/07 08:08:50;;;;;;;9.05;2.80;;;22.50;32.80;;;;;;5012819;28;20466;-57
2021/03/07 08:11:22;;;;;;;5.40;2.65;;;22.60;32.70;;;;;;5011070;28;20499;-58
2021/03/07 08:13:51;;;;;;;5.68;2.95;;;22.60;32.30;;;;;;5012626;28;20408;-58
2021/03/07 08:16:38;;;;;;;10.15;2.90;;;22.70;32.10;;;;;;5011282;28;20757;-58
2021/03/07 08:19:05;;;;;;;11.80;2.63;;;22.80;32.30;;;;;;5012584;28;20416;-58
2021/03/07 08:21:59;;;;;;;6.90;2.47;;;22.90;32.10;;;;;;5012589;28;20789;-58
2021/03/07 08:24:52;;;;;;;6.57;2.60;;;23.00;32.30;;;;;;5012627;28;20483;-57
2021/03/07 08:27:53;;;;;;;9.73;2.42;;;23.00;34.80;;;;;;5012413;28;20459;-58
2021/03/07 08:30:36;;;;;;;6.43;2.28;;;23.20;34.90;;;;;;4990407;28;20414;-58
2021/03/07 08:33:22;;;;;;;7.93;2.50;;;23.30;36.40;;;;;;5009347;28;20401;-58
2021/03/07 08:36:10;;;;;;;6.07;2.20;;;23.30;33.40;;;;;;5011849;28;20559;-58
2021/03/07 08:38:36;;;;;;;5.15;2.05;;;23.30;33.50;;;;;;5012283;28;20408;-58
2021/03/07 08:41:03;;;;;;;7.82;2.25;;;23.40;33.90;;;;;;5012253;28;20381;-58
2021/03/07 08:43:44;;;;;;;5.22;2.40;;;23.40;34.80;;;;;;5012244;28;20480;-58
2021/03/07 08:46:15;;;;;;;6.82;2.28;;;23.50;33.90;;;;;;5012040;28;20478;-58
2021/03/07 08:48:46;;;;;;;4.90;2.10;;;23.50;36.00;;;;;;5012345;28;20397;-58
2021/03/07 08:51:13;;;;;;;7.60;2.15;;;23.60;33.30;;;;;;5011920;28;20880;-59
2021/03/07 08:53:41;;;;;;;6.57;2.40;;;23.70;34.70;;;;;;5011772;28;20431;-58
2021/03/07 08:56:08;;;;;;;6.85;2.30;;;23.70;34.30;;;;;;5012165;28;20417;-58
2021/03/07 08:58:34;;;;;;;5.77;2.10;;;23.70;34.90;;;;;;5012178;28;20476;-58
2021/03/07 09:01:00;;;;;;;5.70;2.10;;;23.80;33.50;;;;;;5012078;28;20400;-58
2021/03/07 09:03:27;;;;;;;7.40;2.30;;;23.80;34.50;;;;;;5012123;28;20397;-58
2021/03/07 09:05:54;;;;;;;8.93;2.20;;;23.90;34.40;;;;;;5011249;28;20432;-58
2021/03/07 09:08:21;;;;;;;6.17;1.90;;;23.90;35.00;;;;;;5011380;28;20408;-59
2021/03/07 09:10:49;;;;;;;5.65;2.00;;;24.00;34.00;;;;;;5012030;28;20393;-58
2021/03/07 09:13:18;;;;;;;6.15;1.90;;;24.00;33.70;;;;;;5012088;28;20408;-58
2021/03/07 09:15:57;;;;;;;5.53;1.70;;;24.10;36.10;;;;;;5011506;28;20442;-58
2021/03/07 09:18:34;;;;;;;6.07;1.80;;;24.10;33.70;;;;;;5011917;28;20877;-58
2021/03/07 09:21:05;;;;;;;8.00;1.80;;;24.10;35.20;;;;;;5011920;28;20404;-58
2021/03/07 09:23:36;;;;;;;8.18;1.85;;;24.10;34.30;;;;;;5011649;28;20476;-60
2021/03/07 09:26:22;;;;;;;7.60;1.70;;;24.20;34.00;;;;;;5011081;28;20423;-58
2021/03/07 09:28:53;;;;;;;7.85;1.80;;;24.10;34.20;;;;;;5011269;28;20417;-58
2021/03/07 09:31:21;;;;;;;4.50;1.70;;;24.20;34.70;;;;;;5011213;28;20518;-58
2021/03/07 09:33:48;;;;;;;4.70;1.50;;;24.20;34.50;;;;;;5011005;28;20963;-58
2021/03/07 09:36:15;;;;;;;5.57;1.40;;;24.20;34.70;;;;;;5011579;28;20450;-58
2021/03/07 09:38:45;;;;;;;4.72;1.67;;;24.30;34.50;;;;;;5011434;28;20812;-57
2021/03/07 09:41:13;;;;;;;6.82;1.60;;;24.30;33.50;;;;;;5010203;28;20389;-58
2021/03/07 09:43:43;;;;;;;5.13;1.60;;;24.30;34.40;;;;;;5011497;28;20424;-58
2021/03/07 09:46:10;;;;;;;5.70;1.88;;;24.30;33.90;;;;;;5011378;28;20419;-58
2021/03/07 09:48:36;;;;;;;14.75;2.10;;;24.30;33.40;;;;;;5010292;28;20915;-58
2021/03/07 09:51:04;;;;;;;5.18;1.90;;;24.30;32.90;;;;;;5011499;28;20385;-58
2021/03/07 09:53:31;;;;;;;7.53;1.80;;;24.30;33.00;;;;;;5010095;28;20408;-58
2021/03/07 09:55:57;;;;;;;4.32;1.70;;;24.30;33.20;;;;;;5009323;28;20405;-58
2021/03/07 09:58:22;;;;;;;4.38;1.60;;;24.50;30.60;;;;;;5010208;28;20408;-58
2021/03/07 10:00:50;;;;;;;7.13;1.90;;;24.70;31.30;;;;;;5011408;28;20734;-58
2021/03/07 10:03:20;;;;;;;8.07;1.88;;;24.80;31.40;;;;;;5011439;28;20397;-58
2021/03/07 10:06:07;;;;;;;7.68;1.80;;;24.80;31.00;;;;;;5010601;28;20397;-58
2021/03/07 10:08:34;;;;;;;4.22;1.52;;;25.00;30.80;;;;;;5010369;28;20404;-58
2021/03/07 10:11:11;;;;;;;9.05;2.00;;;25.10;30.80;;;;;;5011011;28;20389;-63
2021/03/07 10:13:37;;;;;;;6.70;1.63;;;25.20;30.20;;;;;;5010975;28;20385;-58
2021/03/07 10:16:05;;;;;;;9.40;1.80;;;25.20;29.60;;;;;;5010711;28;20392;-58
2021/03/07 10:18:31;;;;;;;6.85;1.80;;;25.20;29.40;;;;;;5013365;28;20844;-58
2021/03/07 10:20:58;;;;;;;8.03;1.70;;;25.30;29.70;;;;;;5016404;28;20943;-58
2021/03/07 10:23:32;;;;;;;9.88;1.80;;;25.30;29.50;;;;;;5045374;28;20390;-61
2021/03/07 10:25:59;;;;;;;9.20;1.83;;;25.30;29.50;;;;;;5034170;28;20394;-58
2021/03/07 10:28:29;;;;;;;9.83;1.90;;;25.30;29.20;;;;;;5034635;28;20470;-59
2021/03/07 10:31:07;;;;;;;9.45;1.80;;;25.20;30.00;;;;;;5025392;28;20418;-58
2021/03/07 10:33:33;;;;;;;6.40;1.63;;;25.20;30.00;;;;;;5023615;28;20396;-58
2021/03/07 10:35:58;;;;;;;6.32;1.80;;;25.10;29.40;;;;;;5022316;28;20379;-57
2021/03/07 10:38:24;;;;;;;6.60;1.80;;;25.10;29.60;;;;;;5024447;28;20755;-58
2021/03/07 10:40:50;;;;;;;8.32;1.73;;;25.10;29.70;;;;;;5021686;28;20412;-57
2021/03/07 10:43:16;;;;;;;10.50;1.90;;;25.00;29.40;;;;;;5023104;28;20395;-58
2021/03/07 10:45:41;;;;;;;3.83;1.80;;;25.00;29.60;;;;;;5024078;28;20442;-58
2021/03/07 10:48:12;;;;;;;5.65;1.83;;;24.90;29.50;;;;;;5021820;28;20805;-57
2021/03/07 10:50:46;;;;;;;4.90;1.67;;;24.80;29.70;;;;;;5022308;28;20387;-58
2021/03/07 10:53:12;;;;;;;5.10;1.52;;;24.70;29.30;;;;;;5024017;28;20466;-58
2021/03/07 10:55:38;;;;;;;4.80;1.70;;;24.60;28.80;;;;;;5023807;28;20943;-58
2021/03/07 10:58:05;;;;;;;8.40;1.73;;;24.60;28.60;;;;;;5021238;28;20401;-58
2021/03/07 11:00:32;;;;;;;6.43;1.85;;;24.60;28.90;;;;;;5023211;28;20387;-58
2021/03/07 11:02:58;;;;;;;4.85;1.55;;;24.60;28.70;;;;;;5023550;28;20742;-58
2021/03/07 11:05:25;;;;;;;4.18;1.60;;;24.50;28.80;;;;;;5021934;28;20389;-61
2021/03/07 11:07:51;;;;;;;3.53;1.50;;;24.50;28.80;;;;;;5022655;28;20929;-57
2021/03/07 11:10:19;;;;;;;3.75;1.60;;;24.40;28.80;;;;;;5023621;28;20388;-58
2021/03/07 11:12:45;;;;;;;3.73;1.53;;;24.30;28.70;;;;;;5037051;28;20435;-58
2021/03/07 11:15:12;;;;;;;3.80;1.52;;;24.20;29.20;;;;;;5022997;28;20755;-59
2021/03/07 11:17:38;;;;;;;4.15;1.52;;;24.30;28.80;;;;;;5023385;28;20934;-58
2021/03/07 11:20:05;;;;;;;3.50;1.58;;;24.20;28.70;;;;;;5016065;28;20397;-57
2021/03/07 11:22:31;;;;;;;5.03;1.52;;;24.20;28.70;;;;;;5013237;28;20392;-58
2021/03/07 11:24:56;;;;;;;2.77;1.40;;;24.20;28.70;;;;;;5012683;28;20409;-58
2021/03/07 11:27:22;;;;;;;2.63;1.30;;;24.20;28.70;;;;;;5013827;28;20940;-58
2021/03/07 11:29:51;;;;;;;3.10;1.60;;;24.20;28.50;;;;;;5012047;28;20389;-58
2021/03/07 11:32:19;;;;;;;3.17;1.40;;;24.20;28.50;;;;;;5013692;28;20413;-58
2021/03/07 11:34:45;;;;;;;3.28;1.45;;;24.20;28.70;;;;;;5013841;28;20417;-58
2021/03/07 11:37:10;;;;;;;3.33;1.70;;;24.20;28.70;;;;;;5013661;28;20498;-58
2021/03/07 11:39:36;;;;;;;3.17;1.80;;;24.20;28.80;;;;;;5013452;28;20393;-58
2021/03/07 11:42:02;;;;;;;3.30;1.52;;;24.20;28.60;;;;;;5013101;28;20388;-58
2021/03/07 11:44:27;;;;;;;3.93;1.77;;;24.20;29.10;;;;;;5013598;28;20467;-57
2021/03/07 11:46:53;;;;;;;4.05;1.70;;;24.20;28.70;;;;;;5013064;28;20420;-58
2021/03/07 11:49:20;;;;;;;2.97;1.75;;;24.20;28.70;;;;;;5012323;28;20405;-58
2021/03/07 11:51:46;;;;;;;3.40;1.80;;;24.10;28.60;;;;;;5030413;28;20410;-61
2021/03/07 11:54:12;;;;;;;4.30;1.75;;;24.10;29.00;;;;;;5033291;28;20422;-58
2021/03/07 11:56:38;;;;;;;2.72;1.45;;;24.20;28.70;;;;;;5033271;28;20423;-58
2021/03/07 11:59:04;;;;;;;3.08;1.48;;;24.20;29.00;;;;;;5032728;28;20456;-62
2021/03/07 12:01:32;;;;;;;2.63;1.37;;;24.20;28.50;;;;;;5033088;28;20391;-58
2021/03/07 12:03:58;;;;;;;2.88;1.60;;;24.30;28.50;;;;;;5022914;28;20792;-58
2021/03/07 12:06:25;;;;;;;2.85;1.45;;;24.30;28.40;;;;;;5020871;28;20401;-58
2021/03/07 12:08:50;;;;;;;2.33;1.30;;;24.30;28.50;;;;;;5021782;28;20434;-58
2021/03/07 12:11:17;;;;;;;3.17;1.27;;;24.30;28.40;;;;;;5021849;28;20810;-58
2021/03/07 12:13:43;;;;;;;2.22;1.40;;;24.30;28.40;;;;;;5020208;28;20901;-58
2021/03/07 12:16:09;;;;;;;2.10;1.60;;;24.30;28.40;;;;;;5021060;28;20399;-58
2021/03/07 12:18:37;;;;;;;2.57;1.27;;;24.20;28.40;;;;;;5021851;28;20478;-58
2021/03/07 12:21:04;;;;;;;2.03;1.40;;;24.30;28.40;;;;;;5020268;28;20803;-58
2021/03/07 12:23:29;;;;;;;2.42;1.40;;;24.30;28.40;;;;;;5020084;28;20451;-58
2021/03/07 12:25:55;;;;;;;3.00;1.50;;;24.30;28.20;;;;;;5019257;28;20399;-58
2021/03/07 12:28:21;;;;;;;2.47;1.17;;;24.30;28.30;;;;;;5015102;28;20889;-58
2021/03/07 12:30:46;;;;;;;2.40;1.30;;;24.30;28.20;;;;;;5011890;28;20592;-61
2021/03/07 12:33:12;;;;;;;2.50;1.30;;;24.30;28.20;;;;;;5012551;28;20397;-58
2021/03/07 12:35:38;;;;;;;2.17;1.30;;;24.30;28.20;;;;;;5012392;28;20439;-58
2021/03/07 12:38:04;;;;;;;2.47;1.30;;;24.30;28.20;;;;;;5011934;28;20400;-58
2021/03/07 12:40:30;;;;;;;1.90;1.53;;;24.30;28.20;;;;;;5012112;28;20904;-58
2021/03/07 12:42:56;;;;;;;2.40;1.20;;;24.30;28.10;;;;;;5027290;28;20400;-57
2021/03/07 12:45:22;;;;;;;4.13;1.60;;;25.20;30.40;;;;;;5012258;28;20412;-58
2021/03/07 12:47:48;;;;;;;5.03;1.40;;;26.00;30.10;;;;;;5011418;28;20420;-59
2021/03/07 12:50:14;;;;;;;3.28;1.30;;;26.40;29.40;;;;;;5009791;28;20380;-58
2021/03/07 12:52:40;;;;;;;4.90;1.40;;;26.70;29.40;;;;;;5010701;28;20753;-58
2021/03/07 12:55:06;;;;;;;5.68;1.50;;;26.90;29.10;;;;;;5010445;28;20395;-58